sensor_id;sensor_type;location;lat;lon;timestamp;P1;durP1;ratioP1;P2;durP2;ratioP2
19965;SDS011;10144;50.874;4.762;2023-04-24T00:01:44;30.93;;;12.13;;
19965;SDS011;10144;50.874;4.762;2023-04-24T00:04:12;32.40;;;12.40;;
19965;SDS011;10144;50.874;4.762;2023-04-24T00:06:39;33.50;;;12.50;;
19965;SDS011;10144;50.874;4.762;2023-04-24T00:11:36;28.57;;;13.03;;
19965;SDS011;10144;50.874;4.762;2023-04-24T00:14:02;36.10;;;13.03;;
19965;SDS011;10144;50.874;4.762;2023-04-24T00:16:28;31.53;;;12.20;;
19965;SDS011;10144;50.874;4.762;2023-04-24T00:18:55;31.13;;;12.67;;
19965;SDS011;10144;50.874;4.762;2023-04-24T00:21:26;34.33;;;12.90;;
19965;SDS011;10144;50.874;4.762;2023-04-24T00:23:52;34.70;;;13.63;;
19965;SDS011;10144;50.874;4.762;2023-04-24T00:26:18;35.50;;;13.17;;
19965;SDS011;10144;50.874;4.762;2023-04-24T00:28:46;32.33;;;12.77;;
19965;SDS011;10144;50.874;4.762;2023-04-24T00:31:13;31.70;;;12.30;;
19965;SDS011;10144;50.874;4.762;2023-04-24T00:33:40;30.27;;;12.93;;
19965;SDS011;10144;50.874;4.762;2023-04-24T00:36:07;30.80;;;13.57;;
19965;SDS011;10144;50.874;4.762;2023-04-24T00:38:32;33.63;;;12.90;;
19965;SDS011;10144;50.874;4.762;2023-04-24T00:40:59;29.50;;;12.17;;
19965;SDS011;10144;50.874;4.762;2023-04-24T00:43:27;32.47;;;12.90;;
19965;SDS011;10144;50.874;4.762;2023-04-24T00:45:53;34.57;;;13.07;;
19965;SDS011;10144;50.874;4.762;2023-04-24T00:48:20;27.47;;;13.03;;
19965;SDS011;10144;50.874;4.762;2023-04-24T00:50:48;32.30;;;13.73;;
19965;SDS011;10144;50.874;4.762;2023-04-24T00:53:14;29.63;;;12.73;;
19965;SDS011;10144;50.874;4.762;2023-04-24T00:55:39;34.77;;;12.90;;
19965;SDS011;10144;50.874;4.762;2023-04-24T00:58:11;32.10;;;13.53;;
19965;SDS011;10144;50.874;4.762;2023-04-24T01:00:38;34.50;;;14.63;;
19965;SDS011;10144;50.874;4.762;2023-04-24T01:03:04;35.27;;;13.77;;
19965;SDS011;10144;50.874;4.762;2023-04-24T01:05:31;35.77;;;14.10;;
19965;SDS011;10144;50.874;4.762;2023-04-24T01:07:59;33.60;;;13.07;;
19965;SDS011;10144;50.874;4.762;2023-04-24T01:10:26;34.10;;;13.87;;
19965;SDS011;10144;50.874;4.762;2023-04-24T01:12:54;36.07;;;13.73;;
19965;SDS011;10144;50.874;4.762;2023-04-24T01:17:50;37.90;;;13.50;;
19965;SDS011;10144;50.874;4.762;2023-04-24T01:22:47;37.40;;;13.97;;
19965;SDS011;10144;50.874;4.762;2023-04-24T01:27:43;36.07;;;12.83;;
19965;SDS011;10144;50.874;4.762;2023-04-24T01:30:10;34.77;;;13.13;;
19965;SDS011;10144;50.874;4.762;2023-04-24T01:32:38;30.17;;;12.60;;
19965;SDS011;10144;50.874;4.762;2023-04-24T01:35:11;33.90;;;12.80;;
19965;SDS011;10144;50.874;4.762;2023-04-24T01:40:11;30.93;;;12.80;;
19965;SDS011;10144;50.874;4.762;2023-04-24T01:42:38;27.97;;;12.47;;
19965;SDS011;10144;50.874;4.762;2023-04-24T01:45:06;30.33;;;12.17;;
19965;SDS011;10144;50.874;4.762;2023-04-24T01:47:38;29.17;;;12.40;;
19965;SDS011;10144;50.874;4.762;2023-04-24T01:50:10;29.17;;;12.37;;
19965;SDS011;10144;50.874;4.762;2023-04-24T01:52:39;27.93;;;12.03;;
19965;SDS011;10144;50.874;4.762;2023-04-24T01:55:05;28.60;;;11.70;;
19965;SDS011;10144;50.874;4.762;2023-04-24T01:57:35;28.87;;;12.43;;
19965;SDS011;10144;50.874;4.762;2023-04-24T02:02:33;26.87;;;11.63;;
19965;SDS011;10144;50.874;4.762;2023-04-24T02:07:36;25.70;;;11.00;;
19965;SDS011;10144;50.874;4.762;2023-04-24T02:12:35;30.03;;;11.67;;
19965;SDS011;10144;50.874;4.762;2023-04-24T02:15:06;29.20;;;11.33;;
19965;SDS011;10144;50.874;4.762;2023-04-24T02:17:32;22.67;;;11.80;;
19965;SDS011;10144;50.874;4.762;2023-04-24T02:19:58;25.77;;;11.77;;
19965;SDS011;10144;50.874;4.762;2023-04-24T02:22:27;29.30;;;12.73;;
19965;SDS011;10144;50.874;4.762;2023-04-24T02:27:21;33.33;;;12.90;;
19965;SDS011;10144;50.874;4.762;2023-04-24T02:29:48;29.63;;;13.20;;
19965;SDS011;10144;50.874;4.762;2023-04-24T02:32:14;30.00;;;12.70;;
19965;SDS011;10144;50.874;4.762;2023-04-24T02:34:46;30.03;;;12.80;;
19965;SDS011;10144;50.874;4.762;2023-04-24T02:37:16;33.20;;;14.40;;
19965;SDS011;10144;50.874;4.762;2023-04-24T02:42:13;36.97;;;14.77;;
19965;SDS011;10144;50.874;4.762;2023-04-24T02:44:40;32.03;;;14.63;;
19965;SDS011;10144;50.874;4.762;2023-04-24T02:47:13;31.47;;;14.87;;
19965;SDS011;10144;50.874;4.762;2023-04-24T02:49:38;36.20;;;14.23;;
19965;SDS011;10144;50.874;4.762;2023-04-24T02:54:34;36.07;;;13.90;;
19965;SDS011;10144;50.874;4.762;2023-04-24T02:57:00;27.47;;;13.20;;
19965;SDS011;10144;50.874;4.762;2023-04-24T03:01:58;34.23;;;14.90;;
19965;SDS011;10144;50.874;4.762;2023-04-24T03:04:24;32.93;;;14.90;;
19965;SDS011;10144;50.874;4.762;2023-04-24T03:06:53;32.30;;;14.10;;
19965;SDS011;10144;50.874;4.762;2023-04-24T03:09:21;32.40;;;13.57;;
19965;SDS011;10144;50.874;4.762;2023-04-24T03:11:47;29.57;;;13.07;;
19965;SDS011;10144;50.874;4.762;2023-04-24T03:14:14;35.23;;;13.93;;
19965;SDS011;10144;50.874;4.762;2023-04-24T03:16:40;35.17;;;13.53;;
19965;SDS011;10144;50.874;4.762;2023-04-24T03:19:12;30.53;;;12.47;;
19965;SDS011;10144;50.874;4.762;2023-04-24T03:24:09;25.60;;;12.03;;
19965;SDS011;10144;50.874;4.762;2023-04-24T03:26:38;23.63;;;11.33;;
19965;SDS011;10144;50.874;4.762;2023-04-24T03:29:07;23.77;;;11.53;;
19965;SDS011;10144;50.874;4.762;2023-04-24T03:31:34;24.07;;;11.73;;
19965;SDS011;10144;50.874;4.762;2023-04-24T03:34:00;21.50;;;10.93;;
19965;SDS011;10144;50.874;4.762;2023-04-24T03:36:35;29.07;;;12.07;;
19965;SDS011;10144;50.874;4.762;2023-04-24T03:41:30;24.60;;;11.40;;
19965;SDS011;10144;50.874;4.762;2023-04-24T03:46:31;25.73;;;11.27;;
19965;SDS011;10144;50.874;4.762;2023-04-24T03:51:28;25.13;;;11.60;;
19965;SDS011;10144;50.874;4.762;2023-04-24T03:57:00;27.20;;;11.23;;
19965;SDS011;10144;50.874;4.762;2023-04-24T03:59:32;29.70;;;11.80;;
19965;SDS011;10144;50.874;4.762;2023-04-24T04:04:26;26.03;;;11.77;;
19965;SDS011;10144;50.874;4.762;2023-04-24T04:11:56;22.03;;;10.07;;
19965;SDS011;10144;50.874;4.762;2023-04-24T04:14:24;22.67;;;10.10;;
19965;SDS011;10144;50.874;4.762;2023-04-24T04:16:49;18.13;;;9.17;;
19965;SDS011;10144;50.874;4.762;2023-04-24T04:19:16;19.10;;;8.50;;
19965;SDS011;10144;50.874;4.762;2023-04-24T04:21:44;17.13;;;8.57;;
19965;SDS011;10144;50.874;4.762;2023-04-24T04:24:16;17.33;;;8.40;;
19965;SDS011;10144;50.874;4.762;2023-04-24T04:26:42;18.90;;;7.83;;
19965;SDS011;10144;50.874;4.762;2023-04-24T04:29:13;13.77;;;7.47;;
19965;SDS011;10144;50.874;4.762;2023-04-24T04:34:09;16.37;;;6.83;;
19965;SDS011;10144;50.874;4.762;2023-04-24T04:36:41;16.00;;;6.67;;
19965;SDS011;10144;50.874;4.762;2023-04-24T04:39:11;17.07;;;6.93;;
19965;SDS011;10144;50.874;4.762;2023-04-24T04:41:37;16.83;;;6.87;;
19965;SDS011;10144;50.874;4.762;2023-04-24T04:44:06;15.50;;;6.63;;
19965;SDS011;10144;50.874;4.762;2023-04-24T04:46:43;14.20;;;6.50;;
19965;SDS011;10144;50.874;4.762;2023-04-24T04:49:11;12.90;;;6.60;;
19965;SDS011;10144;50.874;4.762;2023-04-24T04:51:42;16.27;;;6.70;;
19965;SDS011;10144;50.874;4.762;2023-04-24T04:54:11;14.67;;;6.03;;
19965;SDS011;10144;50.874;4.762;2023-04-24T04:56:55;11.93;;;6.13;;
19965;SDS011;10144;50.874;4.762;2023-04-24T04:59:24;12.87;;;6.30;;
19965;SDS011;10144;50.874;4.762;2023-04-24T05:01:56;13.13;;;6.03;;
19965;SDS011;10144;50.874;4.762;2023-04-24T05:04:23;14.67;;;6.93;;
19965;SDS011;10144;50.874;4.762;2023-04-24T05:06:49;14.40;;;7.10;;
19965;SDS011;10144;50.874;4.762;2023-04-24T05:09:19;16.87;;;7.33;;
19965;SDS011;10144;50.874;4.762;2023-04-24T05:11:51;17.27;;;7.40;;
19965;SDS011;10144;50.874;4.762;2023-04-24T05:14:19;22.37;;;9.13;;
19965;SDS011;10144;50.874;4.762;2023-04-24T05:16:48;19.00;;;8.77;;
19965;SDS011;10144;50.874;4.762;2023-04-24T05:19:14;18.43;;;9.03;;
19965;SDS011;10144;50.874;4.762;2023-04-24T05:24:09;28.30;;;10.77;;
19965;SDS011;10144;50.874;4.762;2023-04-24T05:26:37;23.40;;;10.13;;
19965;SDS011;10144;50.874;4.762;2023-04-24T05:29:08;21.83;;;9.83;;
19965;SDS011;10144;50.874;4.762;2023-04-24T05:31:36;23.10;;;10.50;;
19965;SDS011;10144;50.874;4.762;2023-04-24T05:34:03;28.07;;;10.90;;
19965;SDS011;10144;50.874;4.762;2023-04-24T05:39:02;24.30;;;10.07;;
19965;SDS011;10144;50.874;4.762;2023-04-24T05:41:32;24.93;;;11.17;;
19965;SDS011;10144;50.874;4.762;2023-04-24T05:43:59;23.60;;;9.97;;
19965;SDS011;10144;50.874;4.762;2023-04-24T05:46:27;28.70;;;10.77;;
19965;SDS011;10144;50.874;4.762;2023-04-24T05:48:56;26.27;;;10.43;;
19965;SDS011;10144;50.874;4.762;2023-04-24T05:56:22;31.27;;;10.67;;
19965;SDS011;10144;50.874;4.762;2023-04-24T05:58:50;26.20;;;11.00;;
19965;SDS011;10144;50.874;4.762;2023-04-24T06:01:22;29.40;;;11.53;;
19965;SDS011;10144;50.874;4.762;2023-04-24T06:03:54;30.77;;;11.70;;
19965;SDS011;10144;50.874;4.762;2023-04-24T06:06:20;30.20;;;11.83;;
19965;SDS011;10144;50.874;4.762;2023-04-24T06:08:46;27.10;;;10.90;;
19965;SDS011;10144;50.874;4.762;2023-04-24T06:11:12;27.83;;;11.33;;
19965;SDS011;10144;50.874;4.762;2023-04-24T06:13:37;28.10;;;11.57;;
19965;SDS011;10144;50.874;4.762;2023-04-24T06:16:03;31.23;;;11.87;;
19965;SDS011;10144;50.874;4.762;2023-04-24T06:18:29;26.43;;;11.43;;
19965;SDS011;10144;50.874;4.762;2023-04-24T06:20:55;35.47;;;12.73;;
19965;SDS011;10144;50.874;4.762;2023-04-24T06:23:26;33.80;;;12.70;;
19965;SDS011;10144;50.874;4.762;2023-04-24T06:25:55;34.77;;;12.73;;
19965;SDS011;10144;50.874;4.762;2023-04-24T06:28:24;33.27;;;13.13;;
19965;SDS011;10144;50.874;4.762;2023-04-24T06:30:52;38.43;;;13.77;;
19965;SDS011;10144;50.874;4.762;2023-04-24T06:33:21;28.40;;;12.83;;
19965;SDS011;10144;50.874;4.762;2023-04-24T06:35:49;34.77;;;13.83;;
19965;SDS011;10144;50.874;4.762;2023-04-24T06:38:17;34.67;;;13.77;;
19965;SDS011;10144;50.874;4.762;2023-04-24T06:40:44;35.37;;;13.57;;
19965;SDS011;10144;50.874;4.762;2023-04-24T06:45:42;37.30;;;13.90;;
19965;SDS011;10144;50.874;4.762;2023-04-24T06:48:08;34.00;;;14.33;;
19965;SDS011;10144;50.874;4.762;2023-04-24T06:50:34;36.07;;;15.30;;
19965;SDS011;10144;50.874;4.762;2023-04-24T06:53:00;37.67;;;15.13;;
19965;SDS011;10144;50.874;4.762;2023-04-24T06:55:25;37.53;;;13.67;;
19965;SDS011;10144;50.874;4.762;2023-04-24T06:57:51;33.87;;;13.47;;
19965;SDS011;10144;50.874;4.762;2023-04-24T07:00:17;37.07;;;14.13;;
19965;SDS011;10144;50.874;4.762;2023-04-24T07:02:42;40.43;;;14.87;;
19965;SDS011;10144;50.874;4.762;2023-04-24T07:05:08;39.77;;;14.77;;
19965;SDS011;10144;50.874;4.762;2023-04-24T07:07:34;44.37;;;15.33;;
19965;SDS011;10144;50.874;4.762;2023-04-24T07:10:02;41.17;;;15.03;;
19965;SDS011;10144;50.874;4.762;2023-04-24T07:12:29;43.33;;;15.40;;
19965;SDS011;10144;50.874;4.762;2023-04-24T07:14:54;46.90;;;17.00;;
19965;SDS011;10144;50.874;4.762;2023-04-24T07:17:20;48.33;;;16.60;;
19965;SDS011;10144;50.874;4.762;2023-04-24T07:19:46;46.93;;;17.33;;
19965;SDS011;10144;50.874;4.762;2023-04-24T07:22:11;45.17;;;16.10;;
19965;SDS011;10144;50.874;4.762;2023-04-24T07:24:45;43.93;;;16.33;;
19965;SDS011;10144;50.874;4.762;2023-04-24T07:27:11;39.23;;;15.13;;
19965;SDS011;10144;50.874;4.762;2023-04-24T07:29:37;44.33;;;15.87;;
19965;SDS011;10144;50.874;4.762;2023-04-24T07:32:03;36.47;;;14.77;;
19965;SDS011;10144;50.874;4.762;2023-04-24T07:34:29;38.30;;;14.57;;
19965;SDS011;10144;50.874;4.762;2023-04-24T07:36:54;33.47;;;14.60;;
19965;SDS011;10144;50.874;4.762;2023-04-24T07:39:20;41.83;;;14.30;;
19965;SDS011;10144;50.874;4.762;2023-04-24T07:41:46;41.87;;;15.30;;
19965;SDS011;10144;50.874;4.762;2023-04-24T07:44:11;40.43;;;13.80;;
19965;SDS011;10144;50.874;4.762;2023-04-24T07:46:37;35.07;;;13.87;;
19965;SDS011;10144;50.874;4.762;2023-04-24T07:49:03;39.60;;;15.00;;
19965;SDS011;10144;50.874;4.762;2023-04-24T07:51:29;42.83;;;15.27;;
19965;SDS011;10144;50.874;4.762;2023-04-24T07:53:56;40.23;;;15.03;;
19965;SDS011;10144;50.874;4.762;2023-04-24T07:56:22;40.80;;;15.57;;
19965;SDS011;10144;50.874;4.762;2023-04-24T07:58:48;46.63;;;17.20;;
19965;SDS011;10144;50.874;4.762;2023-04-24T08:01:13;42.60;;;15.50;;
19965;SDS011;10144;50.874;4.762;2023-04-24T08:03:39;42.87;;;14.87;;
19965;SDS011;10144;50.874;4.762;2023-04-24T08:06:05;34.03;;;13.37;;
19965;SDS011;10144;50.874;4.762;2023-04-24T08:08:31;38.13;;;12.83;;
19965;SDS011;10144;50.874;4.762;2023-04-24T08:10:57;37.87;;;13.80;;
19965;SDS011;10144;50.874;4.762;2023-04-24T08:13:23;37.63;;;14.27;;
19965;SDS011;10144;50.874;4.762;2023-04-24T08:15:48;32.97;;;12.80;;
19965;SDS011;10144;50.874;4.762;2023-04-24T08:18:14;35.03;;;12.17;;
19965;SDS011;10144;50.874;4.762;2023-04-24T08:20:40;33.23;;;12.87;;
19965;SDS011;10144;50.874;4.762;2023-04-24T08:23:06;27.03;;;10.67;;
19965;SDS011;10144;50.874;4.762;2023-04-24T08:25:32;30.67;;;10.50;;
19965;SDS011;10144;50.874;4.762;2023-04-24T08:28:00;29.30;;;10.03;;
19965;SDS011;10144;50.874;4.762;2023-04-24T08:30:26;21.40;;;8.10;;
19965;SDS011;10144;50.874;4.762;2023-04-24T08:32:52;28.67;;;9.23;;
19965;SDS011;10144;50.874;4.762;2023-04-24T08:35:18;25.30;;;8.60;;
19965;SDS011;10144;50.874;4.762;2023-04-24T08:37:44;20.43;;;7.70;;
19965;SDS011;10144;50.874;4.762;2023-04-24T08:40:13;21.23;;;8.10;;
19965;SDS011;10144;50.874;4.762;2023-04-24T08:42:43;22.57;;;8.03;;
19965;SDS011;10144;50.874;4.762;2023-04-24T08:45:10;21.90;;;8.03;;
19965;SDS011;10144;50.874;4.762;2023-04-24T08:47:40;21.50;;;8.30;;
19965;SDS011;10144;50.874;4.762;2023-04-24T08:50:07;24.30;;;9.10;;
19965;SDS011;10144;50.874;4.762;2023-04-24T08:52:34;28.63;;;9.87;;
19965;SDS011;10144;50.874;4.762;2023-04-24T08:55:00;25.33;;;9.90;;
19965;SDS011;10144;50.874;4.762;2023-04-24T08:57:27;28.10;;;10.10;;
19965;SDS011;10144;50.874;4.762;2023-04-24T08:59:54;25.20;;;10.10;;
19965;SDS011;10144;50.874;4.762;2023-04-24T09:02:22;29.97;;;10.10;;
19965;SDS011;10144;50.874;4.762;2023-04-24T09:04:49;32.70;;;10.50;;
19965;SDS011;10144;50.874;4.762;2023-04-24T09:07:16;28.63;;;10.03;;
19965;SDS011;10144;50.874;4.762;2023-04-24T09:09:43;18.97;;;7.57;;
19965;SDS011;10144;50.874;4.762;2023-04-24T09:12:09;22.17;;;7.07;;
19965;SDS011;10144;50.874;4.762;2023-04-24T09:14:35;22.27;;;7.10;;
19965;SDS011;10144;50.874;4.762;2023-04-24T09:17:04;22.13;;;6.60;;
19965;SDS011;10144;50.874;4.762;2023-04-24T09:19:31;18.97;;;6.83;;
19965;SDS011;10144;50.874;4.762;2023-04-24T09:21:57;16.67;;;6.63;;
19965;SDS011;10144;50.874;4.762;2023-04-24T09:24:22;21.33;;;6.63;;
19965;SDS011;10144;50.874;4.762;2023-04-24T09:26:49;20.87;;;6.97;;
19965;SDS011;10144;50.874;4.762;2023-04-24T09:29:22;20.43;;;6.50;;
19965;SDS011;10144;50.874;4.762;2023-04-24T09:31:48;17.70;;;5.90;;
19965;SDS011;10144;50.874;4.762;2023-04-24T09:34:13;20.48;;;5.25;;
19965;SDS011;10144;50.874;4.762;2023-04-24T09:36:41;12.35;;;4.82;;
19965;SDS011;10144;50.874;4.762;2023-04-24T09:39:08;11.57;;;4.22;;
19965;SDS011;10144;50.874;4.762;2023-04-24T09:41:51;10.77;;;4.10;;
19965;SDS011;10144;50.874;4.762;2023-04-24T09:44:19;11.05;;;4.40;;
19965;SDS011;10144;50.874;4.762;2023-04-24T09:46:49;15.70;;;4.32;;
19965;SDS011;10144;50.874;4.762;2023-04-24T09:49:16;10.70;;;4.70;;
19965;SDS011;10144;50.874;4.762;2023-04-24T09:51:46;13.98;;;4.70;;
19965;SDS011;10144;50.874;4.762;2023-04-24T09:54:16;10.77;;;4.43;;
19965;SDS011;10144;50.874;4.762;2023-04-24T09:56:49;10.82;;;4.07;;
19965;SDS011;10144;50.874;4.762;2023-04-24T09:59:16;17.40;;;5.00;;
19965;SDS011;10144;50.874;4.762;2023-04-24T10:01:43;13.63;;;5.10;;
19965;SDS011;10144;50.874;4.762;2023-04-24T10:04:20;15.55;;;4.72;;
19965;SDS011;10144;50.874;4.762;2023-04-24T10:06:46;14.07;;;4.35;;
19965;SDS011;10144;50.874;4.762;2023-04-24T10:09:14;14.63;;;4.05;;
19965;SDS011;10144;50.874;4.762;2023-04-24T10:11:41;11.57;;;3.63;;
19965;SDS011;10144;50.874;4.762;2023-04-24T10:14:09;12.10;;;3.60;;
19965;SDS011;10144;50.874;4.762;2023-04-24T10:16:38;14.38;;;3.88;;
19965;SDS011;10144;50.874;4.762;2023-04-24T10:19:05;13.25;;;3.65;;
19965;SDS011;10144;50.874;4.762;2023-04-24T10:21:31;12.05;;;3.90;;
19965;SDS011;10144;50.874;4.762;2023-04-24T10:23:58;9.10;;;3.20;;
19965;SDS011;10144;50.874;4.762;2023-04-24T10:26:25;11.80;;;3.47;;
19965;SDS011;10144;50.874;4.762;2023-04-24T10:28:52;13.15;;;4.13;;
19965;SDS011;10144;50.874;4.762;2023-04-24T10:31:22;10.75;;;3.65;;
19965;SDS011;10144;50.874;4.762;2023-04-24T10:33:48;15.10;;;4.30;;
19965;SDS011;10144;50.874;4.762;2023-04-24T10:36:16;11.45;;;4.05;;
19965;SDS011;10144;50.874;4.762;2023-04-24T10:38:43;13.63;;;4.13;;
19965;SDS011;10144;50.874;4.762;2023-04-24T10:44:36;12.00;;;3.88;;
19965;SDS011;10144;50.874;4.762;2023-04-24T11:03:25;12.90;;;4.00;;
19965;SDS011;10144;50.874;4.762;2023-04-24T11:09:17;12.15;;;3.90;;
19965;SDS011;10144;50.874;4.762;2023-04-24T11:15:11;10.57;;;4.15;;
19965;SDS011;10144;50.874;4.762;2023-04-24T11:21:02;16.90;;;4.70;;
19965;SDS011;10144;50.874;4.762;2023-04-24T11:32:59;10.15;;;4.38;;
19965;SDS011;10144;50.874;4.762;2023-04-24T11:38:52;11.48;;;4.70;;
19965;SDS011;10144;50.874;4.762;2023-04-24T11:44:41;16.85;;;4.88;;
19965;SDS011;10144;50.874;4.762;2023-04-24T11:50:30;12.70;;;4.38;;
19965;SDS011;10144;50.874;4.762;2023-04-24T11:56:28;13.57;;;4.43;;
19965;SDS011;10144;50.874;4.762;2023-04-24T12:02:24;11.02;;;4.03;;
19965;SDS011;10144;50.874;4.762;2023-04-24T12:08:28;9.15;;;4.60;;
19965;SDS011;10144;50.874;4.762;2023-04-24T12:14:19;9.70;;;4.40;;
19965;SDS011;10144;50.874;4.762;2023-04-24T12:17:31;9.68;;;4.40;;
19965;SDS011;10144;50.874;4.762;2023-04-24T12:20:03;11.27;;;4.10;;
19965;SDS011;10144;50.874;4.762;2023-04-24T12:25:17;10.05;;;4.35;;
19965;SDS011;10144;50.874;4.762;2023-04-24T12:27:44;8.00;;;4.05;;
19965;SDS011;10144;50.874;4.762;2023-04-24T12:30:14;11.07;;;3.83;;
19965;SDS011;10144;50.874;4.762;2023-04-24T12:32:45;11.13;;;4.55;;
19965;SDS011;10144;50.874;4.762;2023-04-24T12:35:12;9.13;;;4.28;;
19965;SDS011;10144;50.874;4.762;2023-04-24T12:37:41;7.75;;;4.20;;
19965;SDS011;10144;50.874;4.762;2023-04-24T12:40:11;9.88;;;4.50;;
19965;SDS011;10144;50.874;4.762;2023-04-24T12:42:47;11.32;;;4.45;;
19965;SDS011;10144;50.874;4.762;2023-04-24T12:45:14;9.85;;;4.65;;
19965;SDS011;10144;50.874;4.762;2023-04-24T12:47:41;14.27;;;4.80;;
19965;SDS011;10144;50.874;4.762;2023-04-24T12:50:08;8.85;;;4.43;;
19965;SDS011;10144;50.874;4.762;2023-04-24T12:52:35;8.85;;;4.00;;
19965;SDS011;10144;50.874;4.762;2023-04-24T12:55:02;10.30;;;3.97;;
19965;SDS011;10144;50.874;4.762;2023-04-24T12:57:29;7.15;;;3.65;;
19965;SDS011;10144;50.874;4.762;2023-04-24T12:59:57;9.20;;;4.03;;
19965;SDS011;10144;50.874;4.762;2023-04-24T13:02:24;6.68;;;3.90;;
19965;SDS011;10144;50.874;4.762;2023-04-24T13:04:51;9.20;;;3.70;;
19965;SDS011;10144;50.874;4.762;2023-04-24T13:07:17;9.88;;;3.72;;
19965;SDS011;10144;50.874;4.762;2023-04-24T13:09:43;8.73;;;3.75;;
19965;SDS011;10144;50.874;4.762;2023-04-24T13:12:10;8.02;;;4.00;;
19965;SDS011;10144;50.874;4.762;2023-04-24T13:14:36;8.88;;;4.10;;
19965;SDS011;10144;50.874;4.762;2023-04-24T13:17:02;10.50;;;3.92;;
19965;SDS011;10144;50.874;4.762;2023-04-24T13:19:28;14.63;;;4.38;;
19965;SDS011;10144;50.874;4.762;2023-04-24T13:21:55;6.88;;;3.97;;
19965;SDS011;10144;50.874;4.762;2023-04-24T13:24:25;10.02;;;4.20;;
19965;SDS011;10144;50.874;4.762;2023-04-24T13:26:54;7.22;;;4.20;;
19965;SDS011;10144;50.874;4.762;2023-04-24T13:29:21;9.48;;;4.70;;
19965;SDS011;10144;50.874;4.762;2023-04-24T13:31:49;9.85;;;4.38;;
19965;SDS011;10144;50.874;4.762;2023-04-24T13:34:16;8.50;;;4.40;;
19965;SDS011;10144;50.874;4.762;2023-04-24T13:36:42;9.57;;;3.85;;
19965;SDS011;10144;50.874;4.762;2023-04-24T13:39:08;10.63;;;4.05;;
19965;SDS011;10144;50.874;4.762;2023-04-24T13:41:33;7.88;;;3.90;;
19965;SDS011;10144;50.874;4.762;2023-04-24T13:44:00;7.82;;;3.88;;
19965;SDS011;10144;50.874;4.762;2023-04-24T13:46:26;7.38;;;3.80;;
19965;SDS011;10144;50.874;4.762;2023-04-24T13:48:51;7.30;;;3.70;;
19965;SDS011;10144;50.874;4.762;2023-04-24T13:51:17;8.13;;;3.60;;
19965;SDS011;10144;50.874;4.762;2023-04-24T13:53:43;5.82;;;2.90;;
19965;SDS011;10144;50.874;4.762;2023-04-24T13:56:08;7.82;;;3.33;;
19965;SDS011;10144;50.874;4.762;2023-04-24T13:58:35;7.50;;;2.90;;
19965;SDS011;10144;50.874;4.762;2023-04-24T14:01:02;8.90;;;3.55;;
19965;SDS011;10144;50.874;4.762;2023-04-24T14:03:29;9.93;;;3.92;;
19965;SDS011;10144;50.874;4.762;2023-04-24T14:05:55;10.02;;;3.42;;
19965;SDS011;10144;50.874;4.762;2023-04-24T14:08:20;7.68;;;3.78;;
19965;SDS011;10144;50.874;4.762;2023-04-24T14:10:46;9.93;;;3.45;;
19965;SDS011;10144;50.874;4.762;2023-04-24T14:13:12;9.75;;;3.72;;
19965;SDS011;10144;50.874;4.762;2023-04-24T14:15:38;8.40;;;3.38;;
19965;SDS011;10144;50.874;4.762;2023-04-24T14:18:03;7.30;;;3.15;;
19965;SDS011;10144;50.874;4.762;2023-04-24T14:20:29;8.20;;;3.30;;
19965;SDS011;10144;50.874;4.762;2023-04-24T14:22:55;12.95;;;3.58;;
19965;SDS011;10144;50.874;4.762;2023-04-24T14:25:23;15.25;;;3.50;;
19965;SDS011;10144;50.874;4.762;2023-04-24T14:27:50;24.58;;;7.10;;
19965;SDS011;10144;50.874;4.762;2023-04-24T14:30:17;8.95;;;3.10;;
19965;SDS011;10144;50.874;4.762;2023-04-24T14:32:43;9.50;;;2.85;;
19965;SDS011;10144;50.874;4.762;2023-04-24T14:35:08;8.93;;;3.03;;
19965;SDS011;10144;50.874;4.762;2023-04-24T14:37:34;9.10;;;2.60;;
19965;SDS011;10144;50.874;4.762;2023-04-24T14:40:01;6.93;;;2.90;;
19965;SDS011;10144;50.874;4.762;2023-04-24T14:42:27;7.38;;;3.13;;
19965;SDS011;10144;50.874;4.762;2023-04-24T14:44:53;6.80;;;2.65;;
19965;SDS011;10144;50.874;4.762;2023-04-24T14:47:20;7.97;;;2.60;;
19965;SDS011;10144;50.874;4.762;2023-04-24T14:49:49;5.53;;;2.17;;
19965;SDS011;10144;50.874;4.762;2023-04-24T14:52:15;8.43;;;2.85;;
19965;SDS011;10144;50.874;4.762;2023-04-24T14:54:41;6.70;;;2.70;;
19965;SDS011;10144;50.874;4.762;2023-04-24T14:57:07;9.23;;;2.28;;
19965;SDS011;10144;50.874;4.762;2023-04-24T14:59:33;6.85;;;2.42;;
19965;SDS011;10144;50.874;4.762;2023-04-24T15:01:59;6.80;;;2.42;;
19965;SDS011;10144;50.874;4.762;2023-04-24T15:04:25;5.50;;;2.53;;
19965;SDS011;10144;50.874;4.762;2023-04-24T15:06:52;5.55;;;2.88;;
19965;SDS011;10144;50.874;4.762;2023-04-24T15:09:21;4.57;;;2.65;;
19965;SDS011;10144;50.874;4.762;2023-04-24T15:11:48;8.98;;;3.22;;
19965;SDS011;10144;50.874;4.762;2023-04-24T15:14:14;8.68;;;3.88;;
19965;SDS011;10144;50.874;4.762;2023-04-24T15:16:40;10.30;;;3.25;;
19965;SDS011;10144;50.874;4.762;2023-04-24T15:19:06;7.20;;;3.30;;
19965;SDS011;10144;50.874;4.762;2023-04-24T15:21:31;10.93;;;3.25;;
19965;SDS011;10144;50.874;4.762;2023-04-24T15:23:58;10.38;;;3.45;;
19965;SDS011;10144;50.874;4.762;2023-04-24T15:26:24;9.77;;;3.40;;
19965;SDS011;10144;50.874;4.762;2023-04-24T15:28:50;5.03;;;3.38;;
19965;SDS011;10144;50.874;4.762;2023-04-24T15:31:17;7.47;;;3.30;;
19965;SDS011;10144;50.874;4.762;2023-04-24T15:33:43;7.07;;;3.45;;
19965;SDS011;10144;50.874;4.762;2023-04-24T15:36:09;6.72;;;3.40;;
19965;SDS011;10144;50.874;4.762;2023-04-24T15:38:35;7.72;;;3.20;;
19965;SDS011;10144;50.874;4.762;2023-04-24T15:41:01;9.45;;;3.72;;
19965;SDS011;10144;50.874;4.762;2023-04-24T15:43:27;10.38;;;3.40;;
19965;SDS011;10144;50.874;4.762;2023-04-24T15:45:59;8.88;;;2.95;;
19965;SDS011;10144;50.874;4.762;2023-04-24T15:48:24;8.75;;;2.60;;
19965;SDS011;10144;50.874;4.762;2023-04-24T15:50:50;10.63;;;3.10;;
19965;SDS011;10144;50.874;4.762;2023-04-24T15:53:16;7.32;;;3.03;;
19965;SDS011;10144;50.874;4.762;2023-04-24T15:55:47;7.43;;;2.90;;
19965;SDS011;10144;50.874;4.762;2023-04-24T15:58:14;5.47;;;2.75;;
19965;SDS011;10144;50.874;4.762;2023-04-24T16:00:40;7.90;;;2.85;;
19965;SDS011;10144;50.874;4.762;2023-04-24T16:03:06;7.97;;;3.15;;
19965;SDS011;10144;50.874;4.762;2023-04-24T16:05:32;8.65;;;2.70;;
19965;SDS011;10144;50.874;4.762;2023-04-24T16:07:57;9.93;;;2.70;;
19965;SDS011;10144;50.874;4.762;2023-04-24T16:10:23;7.18;;;2.85;;
19965;SDS011;10144;50.874;4.762;2023-04-24T16:12:49;4.28;;;2.22;;
19965;SDS011;10144;50.874;4.762;2023-04-24T16:15:18;5.53;;;2.20;;
19965;SDS011;10144;50.874;4.762;2023-04-24T16:17:45;5.65;;;2.50;;
19965;SDS011;10144;50.874;4.762;2023-04-24T16:20:11;5.70;;;2.15;;
19965;SDS011;10144;50.874;4.762;2023-04-24T16:22:38;5.88;;;2.67;;
19965;SDS011;10144;50.874;4.762;2023-04-24T16:25:04;8.50;;;3.40;;
19965;SDS011;10144;50.874;4.762;2023-04-24T16:27:32;5.43;;;3.03;;
19965;SDS011;10144;50.874;4.762;2023-04-24T16:29:58;7.33;;;3.20;;
19965;SDS011;10144;50.874;4.762;2023-04-24T16:32:24;6.33;;;3.20;;
19965;SDS011;10144;50.874;4.762;2023-04-24T16:34:50;6.67;;;3.13;;
19965;SDS011;10144;50.874;4.762;2023-04-24T16:37:16;18.73;;;3.50;;
19965;SDS011;10144;50.874;4.762;2023-04-24T16:39:42;6.57;;;3.40;;
19965;SDS011;10144;50.874;4.762;2023-04-24T16:42:14;9.57;;;3.60;;
19965;SDS011;10144;50.874;4.762;2023-04-24T16:44:40;9.97;;;3.80;;